sensor_id;sensor_type;location;lat;lon;timestamp;pressure;altitude;pressure_sealevel;temperature;humidity
23677;BME280;31493;49.058;12.190;2023-07-16T00:01:27;95712.28;;;22.56;58.54
23677;BME280;31493;49.058;12.190;2023-07-16T00:03:56;95710.56;;;22.42;58.88
23677;BME280;31493;49.058;12.190;2023-07-16T00:06:23;95711.34;;;22.36;59.20
23677;BME280;31493;49.058;12.190;2023-07-16T00:08:50;95721.25;;;22.27;59.48
23677;BME280;31493;49.058;12.190;2023-07-16T00:11:17;95737.25;;;22.25;59.78
23677;BME280;31493;49.058;12.190;2023-07-16T00:13:44;95760.03;;;22.26;59.79
23677;BME280;31493;49.058;12.190;2023-07-16T00:16:13;95788.84;;;22.21;60.16
23677;BME280;31493;49.058;12.190;2023-07-16T00:18:41;95799.56;;;22.20;60.41
23677;BME280;31493;49.058;12.190;2023-07-16T00:21:09;95820.94;;;22.25;60.07
23677;BME280;31493;49.058;12.190;2023-07-16T00:23:36;95846.03;;;22.14;60.26
23677;BME280;31493;49.058;12.190;2023-07-16T00:26:03;95845.34;;;22.27;60.24
23677;BME280;31493;49.058;12.190;2023-07-16T00:28:30;95844.91;;;22.02;61.55
23677;BME280;31493;49.058;12.190;2023-07-16T00:30:57;95850.25;;;22.09;61.69
23677;BME280;31493;49.058;12.190;2023-07-16T00:33:24;95866.03;;;22.02;61.79
23677;BME280;31493;49.058;12.190;2023-07-16T00:35:51;95879.97;;;21.96;62.19
23677;BME280;31493;49.058;12.190;2023-07-16T00:38:20;95887.88;;;21.96;62.21
23677;BME280;31493;49.058;12.190;2023-07-16T00:40:47;95885.84;;;21.98;62.55
23677;BME280;31493;49.058;12.190;2023-07-16T00:43:14;95856.56;;;21.78;63.29
23677;BME280;31493;49.058;12.190;2023-07-16T00:45:41;95838.91;;;21.64;64.24
23677;BME280;31493;49.058;12.190;2023-07-16T00:48:12;95791.28;;;21.50;65.53
23677;BME280;31493;49.058;12.190;2023-07-16T00:50:39;95778.47;;;21.47;65.85
23677;BME280;31493;49.058;12.190;2023-07-16T00:53:07;95822.41;;;21.55;65.95
23677;BME280;31493;49.058;12.190;2023-07-16T00:55:36;95834.59;;;21.41;67.23
23677;BME280;31493;49.058;12.190;2023-07-16T00:58:04;95848.94;;;21.39;68.21
23677;BME280;31493;49.058;12.190;2023-07-16T01:00:32;95886.06;;;21.37;68.08
23677;BME280;31493;49.058;12.190;2023-07-16T01:03:00;95881.78;;;21.36;68.62
23677;BME280;31493;49.058;12.190;2023-07-16T01:05:32;95878.06;;;21.31;69.18
23677;BME280;31493;49.058;12.190;2023-07-16T01:08:04;95885.78;;;21.32;70.45
23677;BME280;31493;49.058;12.190;2023-07-16T01:10:33;95910.13;;;21.19;71.17
23677;BME280;31493;49.058;12.190;2023-07-16T01:13:02;95909.50;;;21.32;72.55
23677;BME280;31493;49.058;12.190;2023-07-16T01:15:29;95894.59;;;21.10;72.26
23677;BME280;31493;49.058;12.190;2023-07-16T01:17:56;95892.53;;;20.97;72.88
23677;BME280;31493;49.058;12.190;2023-07-16T01:20:24;95899.66;;;20.73;73.97
23677;BME280;31493;49.058;12.190;2023-07-16T01:23:10;95910.72;;;21.07;74.26
23677;BME280;31493;49.058;12.190;2023-07-16T01:25:56;95927.06;;;21.02;73.44
23677;BME280;31493;49.058;12.190;2023-07-16T01:28:44;95940.75;;;20.83;75.45
23677;BME280;31493;49.058;12.190;2023-07-16T01:31:19;95974.00;;;20.61;76.93
23677;BME280;31493;49.058;12.190;2023-07-16T01:33:50;95963.63;;;20.36;79.87
23677;BME280;31493;49.058;12.190;2023-07-16T01:36:18;95968.88;;;20.28;79.42
23677;BME280;31493;49.058;12.190;2023-07-16T01:38:46;95962.34;;;20.24;80.15
23677;BME280;31493;49.058;12.190;2023-07-16T01:41:13;95986.19;;;20.23;81.13
23677;BME280;31493;49.058;12.190;2023-07-16T01:43:40;96010.44;;;20.10;82.21
23677;BME280;31493;49.058;12.190;2023-07-16T01:46:08;96037.19;;;20.22;84.13
23677;BME280;31493;49.058;12.190;2023-07-16T01:48:37;96060.56;;;20.16;84.27
23677;BME280;31493;49.058;12.190;2023-07-16T01:51:04;96057.63;;;20.11;85.69
23677;BME280;31493;49.058;12.190;2023-07-16T01:53:31;96065.19;;;20.14;86.68
23677;BME280;31493;49.058;12.190;2023-07-16T01:56:00;96065.56;;;20.03;86.88
23677;BME280;31493;49.058;12.190;2023-07-16T01:58:27;96061.22;;;20.27;86.78
23677;BME280;31493;49.058;12.190;2023-07-16T02:00:54;96060.03;;;19.74;88.68
23677;BME280;31493;49.058;12.190;2023-07-16T02:03:21;96071.72;;;19.55;90.35
23677;BME280;31493;49.058;12.190;2023-07-16T02:05:50;96077.16;;;19.45;92.19
23677;BME280;31493;49.058;12.190;2023-07-16T02:08:17;96076.19;;;19.62;92.92
23677;BME280;31493;49.058;12.190;2023-07-16T02:10:44;96091.78;;;19.64;93.25
23677;BME280;31493;49.058;12.190;2023-07-16T02:13:11;96076.97;;;19.38;94.38
23677;BME280;31493;49.058;12.190;2023-07-16T02:15:38;96065.78;;;19.36;95.12
23677;BME280;31493;49.058;12.190;2023-07-16T02:18:06;96066.28;;;19.24;94.92
23677;BME280;31493;49.058;12.190;2023-07-16T02:20:33;96066.13;;;19.42;95.10
23677;BME280;31493;49.058;12.190;2023-07-16T02:23:01;96062.66;;;19.41;95.73
23677;BME280;31493;49.058;12.190;2023-07-16T02:25:28;96058.72;;;19.37;95.78
23677;BME280;31493;49.058;12.190;2023-07-16T02:27:55;96063.00;;;19.38;95.77
23677;BME280;31493;49.058;12.190;2023-07-16T02:30:22;96055.13;;;19.38;97.25
23677;BME280;31493;49.058;12.190;2023-07-16T02:32:49;96042.78;;;19.30;96.75
23677;BME280;31493;49.058;12.190;2023-07-16T02:35:17;96024.38;;;19.30;97.62
23677;BME280;31493;49.058;12.190;2023-07-16T02:37:44;96030.28;;;19.24;97.98
23677;BME280;31493;49.058;12.190;2023-07-16T02:40:12;96046.41;;;19.21;97.83
23677;BME280;31493;49.058;12.190;2023-07-16T02:42:39;96030.81;;;19.28;97.73
23677;BME280;31493;49.058;12.190;2023-07-16T02:45:07;96029.31;;;19.25;98.90
23677;BME280;31493;49.058;12.190;2023-07-16T02:47:35;96039.50;;;19.36;98.49
23677;BME280;31493;49.058;12.190;2023-07-16T02:50:02;96050.97;;;19.44;98.44
23677;BME280;31493;49.058;12.190;2023-07-16T02:52:29;96059.88;;;19.34;98.13
23677;BME280;31493;49.058;12.190;2023-07-16T02:54:56;96052.66;;;19.45;97.61
23677;BME280;31493;49.058;12.190;2023-07-16T02:57:24;96054.13;;;19.39;97.66
23677;BME280;31493;49.058;12.190;2023-07-16T02:59:51;96059.69;;;19.36;97.48
23677;BME280;31493;49.058;12.190;2023-07-16T03:02:18;96079.59;;;19.38;97.46
23677;BME280;31493;49.058;12.190;2023-07-16T03:04:45;96086.16;;;19.34;97.78
23677;BME280;31493;49.058;12.190;2023-07-16T03:07:12;96102.75;;;19.43;98.66
23677;BME280;31493;49.058;12.190;2023-07-16T03:09:39;96110.19;;;19.56;97.60
23677;BME280;31493;49.058;12.190;2023-07-16T03:12:07;96113.97;;;19.70;96.94
23677;BME280;31493;49.058;12.190;2023-07-16T03:14:36;96134.50;;;19.82;94.65
23677;BME280;31493;49.058;12.190;2023-07-16T03:17:03;96140.75;;;19.89;93.46
23677;BME280;31493;49.058;12.190;2023-07-16T03:19:32;96142.38;;;19.90;93.56
23677;BME280;31493;49.058;12.190;2023-07-16T03:21:59;96153.72;;;19.99;93.11
23677;BME280;31493;49.058;12.190;2023-07-16T03:24:26;96147.84;;;19.81;95.09
23677;BME280;31493;49.058;12.190;2023-07-16T03:26:53;96132.66;;;19.42;97.00
23677;BME280;31493;49.058;12.190;2023-07-16T03:29:20;96140.22;;;19.37;97.69
23677;BME280;31493;49.058;12.190;2023-07-16T03:31:48;96142.19;;;19.43;98.09
23677;BME280;31493;49.058;12.190;2023-07-16T03:34:15;96157.34;;;19.74;96.79
23677;BME280;31493;49.058;12.190;2023-07-16T03:36:42;96145.38;;;19.87;94.74
23677;BME280;31493;49.058;12.190;2023-07-16T03:39:09;96146.47;;;19.93;94.36
23677;BME280;31493;49.058;12.190;2023-07-16T03:41:36;96143.41;;;19.81;94.37
23677;BME280;31493;49.058;12.190;2023-07-16T03:44:03;96112.00;;;19.47;95.26
23677;BME280;31493;49.058;12.190;2023-07-16T03:46:30;96100.63;;;19.30;98.19
23677;BME280;31493;49.058;12.190;2023-07-16T03:48:59;96089.44;;;19.20;99.35
23677;BME280;31493;49.058;12.190;2023-07-16T03:51:26;96093.41;;;19.32;99.13
23677;BME280;31493;49.058;12.190;2023-07-16T03:53:53;96079.44;;;19.32;98.59
23677;BME280;31493;49.058;12.190;2023-07-16T03:56:20;96080.91;;;19.43;98.62
23677;BME280;31493;49.058;12.190;2023-07-16T03:58:47;96089.81;;;19.58;97.41
23677;BME280;31493;49.058;12.190;2023-07-16T04:01:14;96092.25;;;19.84;96.83
23677;BME280;31493;49.058;12.190;2023-07-16T04:03:41;96088.28;;;19.96;95.35
23677;BME280;31493;49.058;12.190;2023-07-16T04:06:10;96097.78;;;20.05;94.84
23677;BME280;31493;49.058;12.190;2023-07-16T04:08:37;96087.53;;;20.35;93.30
23677;BME280;31493;49.058;12.190;2023-07-16T04:11:04;96064.47;;;19.81;94.92
23677;BME280;31493;49.058;12.190;2023-07-16T04:13:32;96080.94;;;19.75;95.04
23677;BME280;31493;49.058;12.190;2023-07-16T04:15:59;96103.25;;;19.79;94.64
23677;BME280;31493;49.058;12.190;2023-07-16T04:18:26;96101.31;;;19.65;94.52
23677;BME280;31493;49.058;12.190;2023-07-16T04:20:53;96114.09;;;19.84;94.50
23677;BME280;31493;49.058;12.190;2023-07-16T04:23:22;96108.97;;;19.99;93.62
23677;BME280;31493;49.058;12.190;2023-07-16T04:25:51;96113.22;;;20.16;93.10
23677;BME280;31493;49.058;12.190;2023-07-16T04:28:18;96111.78;;;19.98;92.47
23677;BME280;31493;49.058;12.190;2023-07-16T04:30:45;96112.09;;;20.03;92.28
23677;BME280;31493;49.058;12.190;2023-07-16T04:33:12;96128.53;;;20.05;92.15
23677;BME280;31493;49.058;12.190;2023-07-16T04:35:39;96136.16;;;20.00;92.21
23677;BME280;31493;49.058;12.190;2023-07-16T04:38:06;96154.22;;;19.86;91.87
23677;BME280;31493;49.058;12.190;2023-07-16T04:40:35;96171.00;;;19.77;91.88
23677;BME280;31493;49.058;12.190;2023-07-16T04:43:02;96179.72;;;19.61;92.60
23677;BME280;31493;49.058;12.190;2023-07-16T04:45:29;96182.34;;;19.61;92.10
23677;BME280;31493;49.058;12.190;2023-07-16T04:47:56;96205.69;;;19.64;92.72
23677;BME280;31493;49.058;12.190;2023-07-16T04:50:24;96197.16;;;19.71;92.72
23677;BME280;31493;49.058;12.190;2023-07-16T04:52:51;96198.47;;;19.75;91.89
23677;BME280;31493;49.058;12.190;2023-07-16T04:55:18;96194.88;;;19.76;91.90
23677;BME280;31493;49.058;12.190;2023-07-16T04:57:47;96196.31;;;19.78;92.07
23677;BME280;31493;49.058;12.190;2023-07-16T05:00:14;96204.38;;;19.77;91.89
23677;BME280;31493;49.058;12.190;2023-07-16T05:02:41;96213.28;;;19.76;91.50
23677;BME280;31493;49.058;12.190;2023-07-16T05:05:08;96223.28;;;19.80;91.30
23677;BME280;31493;49.058;12.190;2023-07-16T05:07:35;96219.19;;;19.86;91.42
23677;BME280;31493;49.058;12.190;2023-07-16T05:10:03;96232.66;;;19.91;91.58
23677;BME280;31493;49.058;12.190;2023-07-16T05:12:30;96246.47;;;19.85;90.34
23677;BME280;31493;49.058;12.190;2023-07-16T05:14:58;96245.34;;;19.96;89.85
23677;BME280;31493;49.058;12.190;2023-07-16T05:17:25;96246.97;;;19.80;88.76
23677;BME280;31493;49.058;12.190;2023-07-16T05:19:52;96263.09;;;19.69;88.78
23677;BME280;31493;49.058;12.190;2023-07-16T05:22:19;96259.28;;;19.63;88.05
23677;BME280;31493;49.058;12.190;2023-07-16T05:24:46;96254.97;;;19.54;88.77
23677;BME280;31493;49.058;12.190;2023-07-16T05:27:13;96256.63;;;19.55;87.44
23677;BME280;31493;49.058;12.190;2023-07-16T05:29:40;96254.16;;;19.46;86.33
23677;BME280;31493;49.058;12.190;2023-07-16T05:32:09;96249.53;;;19.48;86.35
23677;BME280;31493;49.058;12.190;2023-07-16T05:34:36;96247.91;;;19.47;85.70
23677;BME280;31493;49.058;12.190;2023-07-16T05:37:04;96259.03;;;19.40;86.13
23677;BME280;31493;49.058;12.190;2023-07-16T05:39:31;96253.06;;;19.30;85.64
23677;BME280;31493;49.058;12.190;2023-07-16T05:41:58;96273.16;;;19.39;86.04
23677;BME280;31493;49.058;12.190;2023-07-16T05:44:27;96271.38;;;19.40;86.20
23677;BME280;31493;49.058;12.190;2023-07-16T05:46:54;96269.19;;;19.35;86.34
23677;BME280;31493;49.058;12.190;2023-07-16T05:49:23;96287.94;;;19.32;87.53
23677;BME280;31493;49.058;12.190;2023-07-16T05:51:51;96269.81;;;19.21;86.77
23677;BME280;31493;49.058;12.190;2023-07-16T05:54:18;96268.13;;;19.46;86.33
23677;BME280;31493;49.058;12.190;2023-07-16T05:56:45;96273.72;;;19.51;87.03
23677;BME280;31493;49.058;12.190;2023-07-16T05:59:12;96284.09;;;19.19;85.10
23677;BME280;31493;49.058;12.190;2023-07-16T06:01:39;96281.31;;;19.20;86.52
23677;BME280;31493;49.058;12.190;2023-07-16T06:04:06;96288.22;;;19.21;85.83
23677;BME280;31493;49.058;12.190;2023-07-16T06:06:35;96281.81;;;19.24;86.04
23677;BME280;31493;49.058;12.190;2023-07-16T06:09:02;96279.31;;;19.14;85.67
23677;BME280;31493;49.058;12.190;2023-07-16T06:11:29;96299.56;;;19.22;87.11
23677;BME280;31493;49.058;12.190;2023-07-16T06:13:56;96299.22;;;19.25;86.58
23677;BME280;31493;49.058;12.190;2023-07-16T06:16:23;96291.06;;;19.36;85.12
23677;BME280;31493;49.058;12.190;2023-07-16T06:18:50;96300.28;;;19.40;85.69
23677;BME280;31493;49.058;12.190;2023-07-16T06:21:17;96303.72;;;19.32;85.51
23677;BME280;31493;49.058;12.190;2023-07-16T06:23:46;96316.09;;;19.48;85.95
23677;BME280;31493;49.058;12.190;2023-07-16T06:26:13;96313.66;;;19.55;85.58
23677;BME280;31493;49.058;12.190;2023-07-16T06:28:40;96309.09;;;19.73;86.80
23677;BME280;31493;49.058;12.190;2023-07-16T06:31:07;96292.69;;;19.79;84.42
23677;BME280;31493;49.058;12.190;2023-07-16T06:33:34;96320.44;;;19.65;83.63
23677;BME280;31493;49.058;12.190;2023-07-16T06:36:01;96330.31;;;19.72;85.06
23677;BME280;31493;49.058;12.190;2023-07-16T06:38:28;96316.34;;;19.63;85.45
23677;BME280;31493;49.058;12.190;2023-07-16T06:40:57;96320.13;;;19.69;85.42
23677;BME280;31493;49.058;12.190;2023-07-16T06:43:24;96321.88;;;19.52;85.43
23677;BME280;31493;49.058;12.190;2023-07-16T06:45:51;96329.13;;;19.58;85.34
23677;BME280;31493;49.058;12.190;2023-07-16T06:48:18;96327.69;;;19.37;85.61
23677;BME280;31493;49.058;12.190;2023-07-16T06:50:45;96332.56;;;19.24;85.81
23677;BME280;31493;49.058;12.190;2023-07-16T06:53:12;96328.84;;;19.35;86.73
23677;BME280;31493;49.058;12.190;2023-07-16T06:55:39;96335.03;;;19.52;86.38
23677;BME280;31493;49.058;12.190;2023-07-16T06:58:10;96346.03;;;19.55;86.90
23677;BME280;31493;49.058;12.190;2023-07-16T07:00:37;96349.06;;;19.34;86.95
23677;BME280;31493;49.058;12.190;2023-07-16T07:03:04;96356.28;;;19.32;87.32
23677;BME280;31493;49.058;12.190;2023-07-16T07:05:31;96356.50;;;19.13;88.06
23677;BME280;31493;49.058;12.190;2023-07-16T07:07:58;96352.72;;;19.07;88.86
23677;BME280;31493;49.058;12.190;2023-07-16T07:10:25;96355.53;;;19.14;88.48
23677;BME280;31493;49.058;12.190;2023-07-16T07:12:52;96356.81;;;19.10;88.44
23677;BME280;31493;49.058;12.190;2023-07-16T07:15:21;96355.91;;;18.93;87.43
23677;BME280;31493;49.058;12.190;2023-07-16T07:17:48;96354.66;;;18.79;85.87
23677;BME280;31493;49.058;12.190;2023-07-16T07:20:17;96353.09;;;18.51;83.85
23677;BME280;31493;49.058;12.190;2023-07-16T07:22:44;96353.47;;;18.56;83.31
23677;BME280;31493;49.058;12.190;2023-07-16T07:25:11;96361.69;;;18.35;82.99
23677;BME280;31493;49.058;12.190;2023-07-16T07:27:38;96365.75;;;18.29;82.47
23677;BME280;31493;49.058;12.190;2023-07-16T07:30:07;96374.06;;;18.25;82.42
23677;BME280;31493;49.058;12.190;2023-07-16T07:32:37;96377.34;;;18.45;82.37
23677;BME280;31493;49.058;12.190;2023-07-16T07:35:04;96367.31;;;18.58;81.74
23677;BME280;31493;49.058;12.190;2023-07-16T07:37:32;96376.03;;;18.58;81.24
23677;BME280;31493;49.058;12.190;2023-07-16T07:39:59;96374.00;;;18.96;81.47
23677;BME280;31493;49.058;12.190;2023-07-16T07:42:26;96371.16;;;18.90;79.32
23677;BME280;31493;49.058;12.190;2023-07-16T07:44:53;96373.38;;;19.02;78.44
23677;BME280;31493;49.058;12.190;2023-07-16T07:47:21;96369.09;;;19.01;79.39
23677;BME280;31493;49.058;12.190;2023-07-16T07:49:51;96372.56;;;19.36;78.37
23677;BME280;31493;49.058;12.190;2023-07-16T07:52:18;96377.66;;;19.37;79.77
23677;BME280;31493;49.058;12.190;2023-07-16T07:54:46;96372.75;;;19.08;77.77
23677;BME280;31493;49.058;12.190;2023-07-16T07:57:13;96377.13;;;19.00;78.45
23677;BME280;31493;49.058;12.190;2023-07-16T07:59:40;96373.94;;;19.14;79.68
23677;BME280;31493;49.058;12.190;2023-07-16T08:02:07;96373.88;;;19.06;79.01
23677;BME280;31493;49.058;12.190;2023-07-16T08:04:34;96373.56;;;19.09;77.64
23677;BME280;31493;49.058;12.190;2023-07-16T08:07:03;96372.69;;;19.00;79.34
23677;BME280;31493;49.058;12.190;2023-07-16T08:09:30;96381.22;;;19.20;78.32
23677;BME280;31493;49.058;12.190;2023-07-16T08:11:57;96368.78;;;19.04;77.73
23677;BME280;31493;49.058;12.190;2023-07-16T08:14:24;96369.09;;;19.01;78.22
23677;BME280;31493;49.058;12.190;2023-07-16T08:16:54;96388.09;;;19.47;78.84
23677;BME280;31493;49.058;12.190;2023-07-16T08:19:21;96405.91;;;19.35;77.68
23677;BME280;31493;49.058;12.190;2023-07-16T08:21:48;96393.84;;;19.25;77.54
23677;BME280;31493;49.058;12.190;2023-07-16T08:24:16;96400.06;;;19.16;78.74
23677;BME280;31493;49.058;12.190;2023-07-16T08:26:43;96388.97;;;19.30;79.03
23677;BME280;31493;49.058;12.190;2023-07-16T08:29:10;96376.28;;;19.51;77.08
23677;BME280;31493;49.058;12.190;2023-07-16T08:31:37;96391.03;;;19.86;76.65
23677;BME280;31493;49.058;12.190;2023-07-16T08:34:04;96398.44;;;19.91;76.43
23677;BME280;31493;49.058;12.190;2023-07-16T08:36:32;96395.97;;;19.89;76.51
23677;BME280;31493;49.058;12.190;2023-07-16T08:39:00;96379.03;;;19.92;76.37
23677;BME280;31493;49.058;12.190;2023-07-16T08:41:28;96387.28;;;19.97;75.88
23677;BME280;31493;49.058;12.190;2023-07-16T08:43:56;96388.41;;;19.86;75.83
23677;BME280;31493;49.058;12.190;2023-07-16T08:46:23;96385.75;;;19.86;75.69
23677;BME280;31493;49.058;12.190;2023-07-16T08:48:51;96390.06;;;19.87;77.65
23677;BME280;31493;49.058;12.190;2023-07-16T08:51:21;96387.75;;;19.84;78.49
23677;BME280;31493;49.058;12.190;2023-07-16T08:53:48;96383.97;;;19.87;80.51
23677;BME280;31493;49.058;12.190;2023-07-16T08:56:15;96384.00;;;19.95;80.43
23677;BME280;31493;49.058;12.190;2023-07-16T08:58:44;96379.47;;;19.71;79.67
23677;BME280;31493;49.058;12.190;2023-07-16T09:01:11;96363.06;;;19.77;78.70
23677;BME280;31493;49.058;12.190;2023-07-16T09:03:39;96352.50;;;19.35;79.99
23677;BME280;31493;49.058;12.190;2023-07-16T09:06:06;96359.22;;;19.29;81.48
23677;BME280;31493;49.058;12.190;2023-07-16T09:08:33;96349.88;;;19.35;81.92
23677;BME280;31493;49.058;12.190;2023-07-16T09:11:00;96357.88;;;19.25;82.60
23677;BME280;31493;49.058;12.190;2023-07-16T09:13:29;96350.03;;;19.33;82.24
23677;BME280;31493;49.058;12.190;2023-07-16T09:15:58;96343.94;;;19.59;82.54
23677;BME280;31493;49.058;12.190;2023-07-16T09:18:26;96348.25;;;19.42;81.58
23677;BME280;31493;49.058;12.190;2023-07-16T09:20:55;96352.03;;;19.39;82.73
23677;BME280;31493;49.058;12.190;2023-07-16T09:23:24;96365.50;;;19.71;82.48
23677;BME280;31493;49.058;12.190;2023-07-16T09:25:53;96371.00;;;20.02;82.96
23677;BME280;31493;49.058;12.190;2023-07-16T09:28:20;96362.03;;;20.29;81.84
23677;BME280;31493;49.058;12.190;2023-07-16T09:30:48;96361.66;;;20.24;79.06
23677;BME280;31493;49.058;12.190;2023-07-16T09:33:17;96373.91;;;20.57;78.70
23677;BME280;31493;49.058;12.190;2023-07-16T09:35:48;96382.44;;;20.59;76.35
23677;BME280;31493;49.058;12.190;2023-07-16T09:38:16;96366.81;;;20.50;79.51
23677;BME280;31493;49.058;12.190;2023-07-16T09:40:44;96379.47;;;20.54;79.51
23677;BME280;31493;49.058;12.190;2023-07-16T09:43:12;96383.28;;;20.52;78.45
23677;BME280;31493;49.058;12.190;2023-07-16T09:45:40;96389.56;;;20.67;77.65
23677;BME280;31493;49.058;12.190;2023-07-16T09:48:07;96378.31;;;21.14;73.34
23677;BME280;31493;49.058;12.190;2023-07-16T09:50:36;96379.72;;;21.41;72.52
23677;BME280;31493;49.058;12.190;2023-07-16T09:53:05;96383.19;;;21.80;70.16
23677;BME280;31493;49.058;12.190;2023-07-16T09:55:34;96382.09;;;21.67;72.13
23677;BME280;31493;49.058;12.190;2023-07-16T09:58:06;96371.84;;;21.24;75.90
23677;BME280;31493;49.058;12.190;2023-07-16T10:00:35;96386.97;;;21.39;73.06
23677;BME280;31493;49.058;12.190;2023-07-16T10:03:05;96390.56;;;21.54;72.01
23677;BME280;31493;49.058;12.190;2023-07-16T10:05:37;96379.56;;;21.42;73.53
23677;BME280;31493;49.058;12.190;2023-07-16T10:08:05;96386.78;;;21.40;73.13
23677;BME280;31493;49.058;12.190;2023-07-16T10:10:42;96380.59;;;21.64;72.78
23677;BME280;31493;49.058;12.190;2023-07-16T10:13:12;96374.16;;;22.06;70.93
23677;BME280;31493;49.058;12.190;2023-07-16T10:15:51;96366.53;;;22.57;67.34
23677;BME280;31493;49.058;12.190;2023-07-16T10:18:23;96359.22;;;22.67;66.41
23677;BME280;31493;49.058;12.190;2023-07-16T10:20:52;96372.53;;;22.74;64.76
23677;BME280;31493;49.058;12.190;2023-07-16T10:23:19;96379.13;;;22.01;67.71
23677;BME280;31493;49.058;12.190;2023-07-16T10:25:58;96366.03;;;21.76;71.46
23677;BME280;31493;49.058;12.190;2023-07-16T10:28:25;96367.78;;;21.61;68.23
23677;BME280;31493;49.058;12.190;2023-07-16T10:30:52;96365.41;;;21.74;68.09
23677;BME280;31493;49.058;12.190;2023-07-16T10:33:19;96376.16;;;21.65;70.65
23677;BME280;31493;49.058;12.190;2023-07-16T10:35:47;96372.28;;;21.92;70.68
23677;BME280;31493;49.058;12.190;2023-07-16T10:38:15;96375.94;;;22.37;69.22
23677;BME280;31493;49.058;12.190;2023-07-16T10:40:43;96385.50;;;22.60;67.65
23677;BME280;31493;49.058;12.190;2023-07-16T10:43:11;96375.97;;;22.97;65.88
23677;BME280;31493;49.058;12.190;2023-07-16T10:45:38;96362.41;;;23.00;64.33
23677;BME280;31493;49.058;12.190;2023-07-16T10:48:05;96355.56;;;23.21;62.02
23677;BME280;31493;49.058;12.190;2023-07-16T10:50:32;96360.56;;;23.01;63.02
23677;BME280;31493;49.058;12.190;2023-07-16T10:53:00;96364.94;;;22.33;64.53
23677;BME280;31493;49.058;12.190;2023-07-16T10:55:30;96363.22;;;22.63;63.60
23677;BME280;31493;49.058;12.190;2023-07-16T10:58:04;96360.31;;;22.73;62.56
23677;BME280;31493;49.058;12.190;2023-07-16T11:00:31;96341.91;;;22.65;62.39
23677;BME280;31493;49.058;12.190;2023-07-16T11:02:58;96337.66;;;22.55;62.75
23677;BME280;31493;49.058;12.190;2023-07-16T11:05:25;96335.91;;;22.25;64.42
23677;BME280;31493;49.058;12.190;2023-07-16T11:07:52;96338.50;;;22.10;66.21
23677;BME280;31493;49.058;12.190;2023-07-16T11:10:19;96334.84;;;22.11;64.10
23677;BME280;31493;49.058;12.190;2023-07-16T11:12:51;96332.16;;;22.65;63.10
23677;BME280;31493;49.058;12.190;2023-07-16T11:15:29;96333.88;;;23.40;61.73
23677;BME280;31493;49.058;12.190;2023-07-16T11:17:57;96349.75;;;23.40;59.48
23677;BME280;31493;49.058;12.190;2023-07-16T11:20:24;96353.94;;;23.20;62.44
23677;BME280;31493;49.058;12.190;2023-07-16T11:22:51;96355.44;;;22.84;64.48
23677;BME280;31493;49.058;12.190;2023-07-16T11:25:18;96351.47;;;22.43;63.65
23677;BME280;31493;49.058;12.190;2023-07-16T11:27:46;96349.13;;;22.25;63.94
23677;BME280;31493;49.058;12.190;2023-07-16T11:30:14;96356.88;;;22.26;65.83
23677;BME280;31493;49.058;12.190;2023-07-16T11:32:42;96352.53;;;22.33;63.58
23677;BME280;31493;49.058;12.190;2023-07-16T11:35:11;96362.88;;;22.66;61.95
23677;BME280;31493;49.058;12.190;2023-07-16T11:37:38;96353.50;;;22.78;64.59
23677;BME280;31493;49.058;12.190;2023-07-16T11:40:07;96354.47;;;23.30;60.71
23677;BME280;31493;49.058;12.190;2023-07-16T11:42:36;96341.41;;;23.73;61.30
23677;BME280;31493;49.058;12.190;2023-07-16T11:45:05;96340.06;;;24.56;59.63
23677;BME280;31493;49.058;12.190;2023-07-16T11:47:33;96336.16;;;24.30;58.23
23677;BME280;31493;49.058;12.190;2023-07-16T11:50:00;96329.59;;;24.26;60.04
23677;BME280;31493;49.058;12.190;2023-07-16T11:52:29;96341.41;;;22.84;60.74
23677;BME280;31493;49.058;12.190;2023-07-16T11:54:57;96326.34;;;22.70;63.34
23677;BME280;31493;49.058;12.190;2023-07-16T11:57:26;96348.75;;;22.51;60.14
23677;BME280;31493;49.058;12.190;2023-07-16T11:59:53;96345.81;;;22.69;63.33
23677;BME280;31493;49.058;12.190;2023-07-16T12:02:20;96334.19;;;22.93;63.83
23677;BME280;31493;49.058;12.190;2023-07-16T12:04:49;96342.44;;;23.57;60.84
23677;BME280;31493;49.058;12.190;2023-07-16T12:07:30;96339.41;;;23.30;59.26
23677;BME280;31493;49.058;12.190;2023-07-16T12:09:58;96333.84;;;22.58;60.92
23677;BME280;31493;49.058;12.190;2023-07-16T12:12:25;96335.81;;;22.79;62.67
23677;BME280;31493;49.058;12.190;2023-07-16T12:14:52;96319.66;;;23.77;61.95
23677;BME280;31493;49.058;12.190;2023-07-16T12:17:19;96320.38;;;23.86;59.42
23677;BME280;31493;49.058;12.190;2023-07-16T12:19:46;96314.44;;;23.03;61.07
23677;BME280;31493;49.058;12.190;2023-07-16T12:22:16;96322.66;;;22.33;63.11
23677;BME280;31493;49.058;12.190;2023-07-16T12:24:44;96324.47;;;22.32;63.08
23677;BME280;31493;49.058;12.190;2023-07-16T12:27:11;96316.47;;;22.41;64.27
23677;BME280;31493;49.058;12.190;2023-07-16T12:29:38;96315.78;;;22.99;63.31
23677;BME280;31493;49.058;12.190;2023-07-16T12:32:06;96314.16;;;22.60;62.99
23677;BME280;31493;49.058;12.190;2023-07-16T12:34:33;96323.50;;;22.71;61.58
23677;BME280;31493;49.058;12.190;2023-07-16T12:37:00;96315.97;;;22.60;61.66
23677;BME280;31493;49.058;12.190;2023-07-16T12:39:29;96302.47;;;22.55;61.38
23677;BME280;31493;49.058;12.190;2023-07-16T12:41:56;96312.94;;;22.71;60.49
23677;BME280;31493;49.058;12.190;2023-07-16T12:44:23;96310.66;;;22.68;61.07
23677;BME280;31493;49.058;12.190;2023-07-16T12:46:50;96307.97;;;23.21;62.19
23677;BME280;31493;49.058;12.190;2023-07-16T12:49:17;96307.16;;;23.50;59.23
23677;BME280;31493;49.058;12.190;2023-07-16T12:51:45;96308.44;;;23.39;59.77
23677;BME280;31493;49.058;12.190;2023-07-16T12:54:12;96307.84;;;22.99;58.09